sensor_id;sensor_type;location;lat;lon;timestamp;P1;durP1;ratioP1;P2;durP2;ratioP2
64037;SDS011;54641;50.168;8.492;2023-03-01T00:00:26;18.70;;;9.40;;
64037;SDS011;54641;50.168;8.492;2023-03-01T00:02:57;18.60;;;8.30;;
64037;SDS011;54641;50.168;8.492;2023-03-01T00:05:27;16.70;;;7.60;;
64037;SDS011;54641;50.168;8.492;2023-03-01T00:07:58;14.20;;;6.90;;
64037;SDS011;54641;50.168;8.492;2023-03-01T00:10:29;17.80;;;9.70;;
64037;SDS011;54641;50.168;8.492;2023-03-01T00:12:59;16.50;;;9.10;;
64037;SDS011;54641;50.168;8.492;2023-03-01T00:18:03;18.80;;;8.70;;
64037;SDS011;54641;50.168;8.492;2023-03-01T00:20:33;11.50;;;5.70;;
64037;SDS011;54641;50.168;8.492;2023-03-01T00:23:04;15.80;;;7.70;;
64037;SDS011;54641;50.168;8.492;2023-03-01T00:25:34;16.80;;;8.50;;
64037;SDS011;54641;50.168;8.492;2023-03-01T00:28:11;17.20;;;9.30;;
64037;SDS011;54641;50.168;8.492;2023-03-01T00:30:42;18.40;;;8.90;;
64037;SDS011;54641;50.168;8.492;2023-03-01T00:33:13;26.30;;;11.30;;
64037;SDS011;54641;50.168;8.492;2023-03-01T00:35:44;22.60;;;9.90;;
64037;SDS011;54641;50.168;8.492;2023-03-01T00:38:15;24.30;;;10.30;;
64037;SDS011;54641;50.168;8.492;2023-03-01T00:40:45;19.50;;;8.40;;
64037;SDS011;54641;50.168;8.492;2023-03-01T00:43:16;13.40;;;6.10;;
64037;SDS011;54641;50.168;8.492;2023-03-01T00:45:47;24.80;;;10.80;;
64037;SDS011;54641;50.168;8.492;2023-03-01T00:48:17;22.00;;;9.50;;
64037;SDS011;54641;50.168;8.492;2023-03-01T00:50:49;17.20;;;8.80;;
64037;SDS011;54641;50.168;8.492;2023-03-01T00:53:19;16.70;;;8.80;;
64037;SDS011;54641;50.168;8.492;2023-03-01T00:55:50;13.10;;;7.60;;
64037;SDS011;54641;50.168;8.492;2023-03-01T00:58:20;20.50;;;10.30;;
64037;SDS011;54641;50.168;8.492;2023-03-01T01:00:51;20.80;;;8.80;;
64037;SDS011;54641;50.168;8.492;2023-03-01T01:03:22;19.50;;;9.50;;
64037;SDS011;54641;50.168;8.492;2023-03-01T01:05:53;23.10;;;9.70;;
64037;SDS011;54641;50.168;8.492;2023-03-01T01:08:24;15.80;;;7.20;;
64037;SDS011;54641;50.168;8.492;2023-03-01T01:10:54;27.10;;;11.40;;
64037;SDS011;54641;50.168;8.492;2023-03-01T01:13:25;25.20;;;11.20;;
64037;SDS011;54641;50.168;8.492;2023-03-01T01:15:55;22.00;;;10.80;;
64037;SDS011;54641;50.168;8.492;2023-03-01T01:18:31;22.10;;;10.70;;
64037;SDS011;54641;50.168;8.492;2023-03-01T01:21:04;24.30;;;11.70;;
64037;SDS011;54641;50.168;8.492;2023-03-01T01:23:36;18.00;;;10.50;;
64037;SDS011;54641;50.168;8.492;2023-03-01T01:26:07;22.00;;;10.60;;
64037;SDS011;54641;50.168;8.492;2023-03-01T01:28:39;22.80;;;10.40;;
64037;SDS011;54641;50.168;8.492;2023-03-01T01:31:10;17.10;;;8.10;;
64037;SDS011;54641;50.168;8.492;2023-03-01T01:33:41;19.70;;;9.20;;
64037;SDS011;54641;50.168;8.492;2023-03-01T01:36:12;11.90;;;4.90;;
64037;SDS011;54641;50.168;8.492;2023-03-01T01:38:43;19.70;;;9.50;;
64037;SDS011;54641;50.168;8.492;2023-03-01T01:41:14;22.90;;;9.60;;
64037;SDS011;54641;50.168;8.492;2023-03-01T01:43:47;16.90;;;8.00;;
64037;SDS011;54641;50.168;8.492;2023-03-01T01:46:35;24.40;;;11.50;;
64037;SDS011;54641;50.168;8.492;2023-03-01T01:49:09;22.10;;;11.20;;
64037;SDS011;54641;50.168;8.492;2023-03-01T01:51:48;23.60;;;11.20;;
64037;SDS011;54641;50.168;8.492;2023-03-01T01:54:23;19.50;;;8.80;;
64037;SDS011;54641;50.168;8.492;2023-03-01T01:56:57;17.40;;;8.90;;
64037;SDS011;54641;50.168;8.492;2023-03-01T01:59:31;16.20;;;8.00;;
64037;SDS011;54641;50.168;8.492;2023-03-01T02:02:03;21.70;;;10.10;;
64037;SDS011;54641;50.168;8.492;2023-03-01T02:04:35;22.50;;;10.90;;
64037;SDS011;54641;50.168;8.492;2023-03-01T02:07:07;20.60;;;8.50;;
64037;SDS011;54641;50.168;8.492;2023-03-01T02:09:42;20.30;;;10.00;;
64037;SDS011;54641;50.168;8.492;2023-03-01T02:12:17;22.00;;;10.10;;
64037;SDS011;54641;50.168;8.492;2023-03-01T02:22:03;24.60;;;12.50;;
64037;SDS011;54641;50.168;8.492;2023-03-01T02:24:40;20.00;;;10.10;;
64037;SDS011;54641;50.168;8.492;2023-03-01T02:27:15;21.60;;;10.30;;
64037;SDS011;54641;50.168;8.492;2023-03-01T02:29:45;21.50;;;10.50;;
64037;SDS011;54641;50.168;8.492;2023-03-01T02:32:17;19.90;;;9.30;;
64037;SDS011;54641;50.168;8.492;2023-03-01T02:34:53;19.80;;;9.60;;
64037;SDS011;54641;50.168;8.492;2023-03-01T02:37:24;23.80;;;10.60;;
64037;SDS011;54641;50.168;8.492;2023-03-01T02:39:56;20.80;;;10.30;;
64037;SDS011;54641;50.168;8.492;2023-03-01T02:42:30;17.40;;;8.30;;
64037;SDS011;54641;50.168;8.492;2023-03-01T02:45:06;22.40;;;10.60;;
64037;SDS011;54641;50.168;8.492;2023-03-01T02:47:38;20.20;;;9.50;;
64037;SDS011;54641;50.168;8.492;2023-03-01T02:50:15;27.50;;;12.40;;
64037;SDS011;54641;50.168;8.492;2023-03-01T02:52:55;18.90;;;9.50;;
64037;SDS011;54641;50.168;8.492;2023-03-01T02:55:31;28.00;;;10.90;;
64037;SDS011;54641;50.168;8.492;2023-03-01T02:58:02;23.20;;;11.30;;
64037;SDS011;54641;50.168;8.492;2023-03-01T03:00:34;28.10;;;11.90;;
64037;SDS011;54641;50.168;8.492;2023-03-01T03:03:08;19.70;;;9.20;;
64037;SDS011;54641;50.168;8.492;2023-03-01T03:05:38;21.40;;;9.60;;
64037;SDS011;54641;50.168;8.492;2023-03-01T03:08:09;24.60;;;12.00;;
64037;SDS011;54641;50.168;8.492;2023-03-01T03:10:40;21.20;;;9.60;;
64037;SDS011;54641;50.168;8.492;2023-03-01T03:13:12;25.80;;;10.90;;
64037;SDS011;54641;50.168;8.492;2023-03-01T03:15:43;23.00;;;10.90;;
64037;SDS011;54641;50.168;8.492;2023-03-01T03:18:14;20.30;;;9.50;;
64037;SDS011;54641;50.168;8.492;2023-03-01T03:20:47;21.20;;;9.80;;
64037;SDS011;54641;50.168;8.492;2023-03-01T03:23:20;26.00;;;11.80;;
64037;SDS011;54641;50.168;8.492;2023-03-01T03:25:51;19.80;;;9.00;;
64037;SDS011;54641;50.168;8.492;2023-03-01T03:28:22;23.80;;;11.60;;
64037;SDS011;54641;50.168;8.492;2023-03-01T03:30:52;25.10;;;11.40;;
64037;SDS011;54641;50.168;8.492;2023-03-01T03:33:22;21.40;;;9.30;;
64037;SDS011;54641;50.168;8.492;2023-03-01T03:35:53;24.00;;;10.50;;
64037;SDS011;54641;50.168;8.492;2023-03-01T03:38:23;21.40;;;9.60;;
64037;SDS011;54641;50.168;8.492;2023-03-01T03:40:59;25.60;;;10.70;;
64037;SDS011;54641;50.168;8.492;2023-03-01T03:43:32;23.80;;;11.50;;
64037;SDS011;54641;50.168;8.492;2023-03-01T03:46:04;23.70;;;10.40;;
64037;SDS011;54641;50.168;8.492;2023-03-01T03:48:36;23.50;;;10.60;;
64037;SDS011;54641;50.168;8.492;2023-03-01T03:51:09;21.10;;;9.90;;
64037;SDS011;54641;50.168;8.492;2023-03-01T03:53:40;25.50;;;11.10;;
64037;SDS011;54641;50.168;8.492;2023-03-01T03:56:11;30.00;;;12.20;;
64037;SDS011;54641;50.168;8.492;2023-03-01T03:58:42;18.80;;;8.10;;
64037;SDS011;54641;50.168;8.492;2023-03-01T04:01:12;23.80;;;11.10;;
64037;SDS011;54641;50.168;8.492;2023-03-01T04:03:43;25.80;;;11.40;;
64037;SDS011;54641;50.168;8.492;2023-03-01T04:06:14;26.20;;;12.60;;
64037;SDS011;54641;50.168;8.492;2023-03-01T04:08:45;26.10;;;12.00;;
64037;SDS011;54641;50.168;8.492;2023-03-01T04:11:18;23.80;;;11.60;;
64037;SDS011;54641;50.168;8.492;2023-03-01T04:13:58;25.60;;;12.10;;
64037;SDS011;54641;50.168;8.492;2023-03-01T04:16:28;25.80;;;11.00;;
64037;SDS011;54641;50.168;8.492;2023-03-01T04:18:59;27.60;;;13.00;;
64037;SDS011;54641;50.168;8.492;2023-03-01T04:21:30;25.60;;;11.20;;
64037;SDS011;54641;50.168;8.492;2023-03-01T04:24:01;23.80;;;10.30;;
64037;SDS011;54641;50.168;8.492;2023-03-01T04:26:31;19.20;;;10.10;;
64037;SDS011;54641;50.168;8.492;2023-03-01T04:29:02;21.20;;;9.70;;
64037;SDS011;54641;50.168;8.492;2023-03-01T04:31:32;28.20;;;13.20;;
64037;SDS011;54641;50.168;8.492;2023-03-01T04:34:03;23.60;;;10.80;;
64037;SDS011;54641;50.168;8.492;2023-03-01T04:36:33;19.60;;;9.60;;
64037;SDS011;54641;50.168;8.492;2023-03-01T04:39:04;21.50;;;9.60;;
64037;SDS011;54641;50.168;8.492;2023-03-01T04:41:40;20.00;;;9.10;;
64037;SDS011;54641;50.168;8.492;2023-03-01T04:44:11;27.10;;;10.20;;
64037;SDS011;54641;50.168;8.492;2023-03-01T04:46:42;24.00;;;11.00;;
64037;SDS011;54641;50.168;8.492;2023-03-01T04:49:12;20.90;;;9.20;;
64037;SDS011;54641;50.168;8.492;2023-03-01T04:51:43;23.00;;;10.60;;
64037;SDS011;54641;50.168;8.492;2023-03-01T04:54:14;23.10;;;10.00;;
64037;SDS011;54641;50.168;8.492;2023-03-01T04:56:45;22.40;;;9.60;;
64037;SDS011;54641;50.168;8.492;2023-03-01T04:59:15;18.00;;;8.60;;
64037;SDS011;54641;50.168;8.492;2023-03-01T05:01:50;22.40;;;10.40;;
64037;SDS011;54641;50.168;8.492;2023-03-01T05:04:23;28.00;;;11.80;;
64037;SDS011;54641;50.168;8.492;2023-03-01T05:06:53;17.80;;;7.90;;
64037;SDS011;54641;50.168;8.492;2023-03-01T05:09:26;21.20;;;10.10;;
64037;SDS011;54641;50.168;8.492;2023-03-01T05:11:56;22.90;;;10.30;;
64037;SDS011;54641;50.168;8.492;2023-03-01T05:14:27;26.50;;;11.80;;
64037;SDS011;54641;50.168;8.492;2023-03-01T05:16:57;21.70;;;10.90;;
64037;SDS011;54641;50.168;8.492;2023-03-01T05:19:31;25.30;;;11.60;;
64037;SDS011;54641;50.168;8.492;2023-03-01T05:22:02;23.30;;;10.00;;
64037;SDS011;54641;50.168;8.492;2023-03-01T05:24:33;25.00;;;11.20;;
64037;SDS011;54641;50.168;8.492;2023-03-01T05:27:04;23.70;;;10.30;;
64037;SDS011;54641;50.168;8.492;2023-03-01T05:29:34;27.40;;;11.40;;
64037;SDS011;54641;50.168;8.492;2023-03-01T05:32:07;24.90;;;12.40;;
64037;SDS011;54641;50.168;8.492;2023-03-01T05:34:42;19.00;;;9.50;;
64037;SDS011;54641;50.168;8.492;2023-03-01T05:37:13;21.50;;;10.30;;
64037;SDS011;54641;50.168;8.492;2023-03-01T05:39:44;25.30;;;10.10;;
64037;SDS011;54641;50.168;8.492;2023-03-01T05:42:17;27.00;;;12.70;;
64037;SDS011;54641;50.168;8.492;2023-03-01T05:44:48;18.10;;;8.60;;
64037;SDS011;54641;50.168;8.492;2023-03-01T05:47:18;25.30;;;10.80;;
64037;SDS011;54641;50.168;8.492;2023-03-01T05:49:49;25.80;;;10.70;;
64037;SDS011;54641;50.168;8.492;2023-03-01T05:52:19;22.70;;;10.80;;
64037;SDS011;54641;50.168;8.492;2023-03-01T05:54:50;24.10;;;10.90;;
64037;SDS011;54641;50.168;8.492;2023-03-01T05:57:20;19.40;;;9.40;;
64037;SDS011;54641;50.168;8.492;2023-03-01T05:59:50;20.70;;;8.90;;
64037;SDS011;54641;50.168;8.492;2023-03-01T06:02:21;20.40;;;9.30;;
64037;SDS011;54641;50.168;8.492;2023-03-01T06:04:52;20.70;;;10.10;;
64037;SDS011;54641;50.168;8.492;2023-03-01T06:07:22;24.60;;;10.60;;
64037;SDS011;54641;50.168;8.492;2023-03-01T06:09:53;23.80;;;10.80;;
64037;SDS011;54641;50.168;8.492;2023-03-01T06:12:23;21.50;;;9.70;;
64037;SDS011;54641;50.168;8.492;2023-03-01T06:14:54;20.50;;;10.70;;
64037;SDS011;54641;50.168;8.492;2023-03-01T06:17:24;18.00;;;9.90;;
64037;SDS011;54641;50.168;8.492;2023-03-01T06:19:57;20.70;;;9.50;;
64037;SDS011;54641;50.168;8.492;2023-03-01T06:22:28;21.40;;;10.80;;
64037;SDS011;54641;50.168;8.492;2023-03-01T06:24:59;20.10;;;9.60;;
64037;SDS011;54641;50.168;8.492;2023-03-01T06:27:30;25.30;;;11.30;;
64037;SDS011;54641;50.168;8.492;2023-03-01T06:30:00;21.10;;;10.60;;
64037;SDS011;54641;50.168;8.492;2023-03-01T06:32:31;20.60;;;9.50;;
64037;SDS011;54641;50.168;8.492;2023-03-01T06:35:02;23.90;;;10.50;;
64037;SDS011;54641;50.168;8.492;2023-03-01T06:37:34;20.10;;;10.50;;
64037;SDS011;54641;50.168;8.492;2023-03-01T06:40:05;21.90;;;10.10;;
64037;SDS011;54641;50.168;8.492;2023-03-01T06:42:39;16.70;;;8.40;;
64037;SDS011;54641;50.168;8.492;2023-03-01T06:45:11;20.20;;;8.90;;
64037;SDS011;54641;50.168;8.492;2023-03-01T06:47:41;16.80;;;8.10;;
64037;SDS011;54641;50.168;8.492;2023-03-01T06:50:13;22.00;;;10.90;;
64037;SDS011;54641;50.168;8.492;2023-03-01T06:52:44;24.50;;;11.50;;
64037;SDS011;54641;50.168;8.492;2023-03-01T06:55:14;21.60;;;9.70;;
64037;SDS011;54641;50.168;8.492;2023-03-01T06:57:45;21.30;;;9.90;;
64037;SDS011;54641;50.168;8.492;2023-03-01T07:00:16;22.60;;;9.70;;
64037;SDS011;54641;50.168;8.492;2023-03-01T07:02:47;22.40;;;9.70;;
64037;SDS011;54641;50.168;8.492;2023-03-01T07:05:18;24.00;;;9.80;;
64037;SDS011;54641;50.168;8.492;2023-03-01T07:07:48;19.10;;;9.90;;
64037;SDS011;54641;50.168;8.492;2023-03-01T07:10:19;23.50;;;10.10;;
64037;SDS011;54641;50.168;8.492;2023-03-01T07:12:49;20.40;;;9.10;;
64037;SDS011;54641;50.168;8.492;2023-03-01T07:15:20;19.50;;;9.20;;
64037;SDS011;54641;50.168;8.492;2023-03-01T07:17:50;19.90;;;10.40;;
64037;SDS011;54641;50.168;8.492;2023-03-01T07:20:20;19.30;;;10.60;;
64037;SDS011;54641;50.168;8.492;2023-03-01T07:22:53;24.30;;;11.80;;
64037;SDS011;54641;50.168;8.492;2023-03-01T07:25:24;16.60;;;8.20;;
64037;SDS011;54641;50.168;8.492;2023-03-01T07:27:54;17.10;;;8.90;;
64037;SDS011;54641;50.168;8.492;2023-03-01T07:30:24;19.20;;;11.10;;
64037;SDS011;54641;50.168;8.492;2023-03-01T07:32:56;17.70;;;9.10;;
64037;SDS011;54641;50.168;8.492;2023-03-01T07:35:27;20.50;;;10.40;;
64037;SDS011;54641;50.168;8.492;2023-03-01T07:37:57;21.40;;;11.00;;
64037;SDS011;54641;50.168;8.492;2023-03-01T07:40:28;16.40;;;8.40;;
64037;SDS011;54641;50.168;8.492;2023-03-01T07:42:59;19.60;;;10.00;;
64037;SDS011;54641;50.168;8.492;2023-03-01T07:45:30;20.70;;;10.90;;
64037;SDS011;54641;50.168;8.492;2023-03-01T07:48:00;22.50;;;11.90;;
64037;SDS011;54641;50.168;8.492;2023-03-01T07:50:32;23.30;;;12.20;;
64037;SDS011;54641;50.168;8.492;2023-03-01T07:53:02;20.30;;;11.30;;
64037;SDS011;54641;50.168;8.492;2023-03-01T07:55:33;19.30;;;10.30;;
64037;SDS011;54641;50.168;8.492;2023-03-01T07:58:03;21.00;;;10.70;;
64037;SDS011;54641;50.168;8.492;2023-03-01T08:00:34;21.50;;;11.20;;
64037;SDS011;54641;50.168;8.492;2023-03-01T08:03:04;21.10;;;10.10;;
64037;SDS011;54641;50.168;8.492;2023-03-01T08:05:35;18.80;;;12.20;;
64037;SDS011;54641;50.168;8.492;2023-03-01T08:08:07;24.30;;;12.00;;
64037;SDS011;54641;50.168;8.492;2023-03-01T08:10:37;21.00;;;12.00;;
64037;SDS011;54641;50.168;8.492;2023-03-01T08:13:08;18.90;;;11.20;;
64037;SDS011;54641;50.168;8.492;2023-03-01T08:15:38;21.20;;;11.20;;
64037;SDS011;54641;50.168;8.492;2023-03-01T08:18:09;19.60;;;11.30;;
64037;SDS011;54641;50.168;8.492;2023-03-01T08:20:39;18.70;;;11.00;;
64037;SDS011;54641;50.168;8.492;2023-03-01T08:25:42;17.40;;;10.00;;
64037;SDS011;54641;50.168;8.492;2023-03-01T08:28:13;18.10;;;10.60;;
64037;SDS011;54641;50.168;8.492;2023-03-01T08:30:43;21.90;;;12.50;;
64037;SDS011;54641;50.168;8.492;2023-03-01T08:33:14;17.60;;;11.20;;
64037;SDS011;54641;50.168;8.492;2023-03-01T08:35:45;17.70;;;11.60;;
64037;SDS011;54641;50.168;8.492;2023-03-01T08:38:16;22.50;;;12.20;;
64037;SDS011;54641;50.168;8.492;2023-03-01T08:40:47;20.00;;;12.10;;
64037;SDS011;54641;50.168;8.492;2023-03-01T08:43:17;20.70;;;12.70;;
64037;SDS011;54641;50.168;8.492;2023-03-01T08:45:49;17.80;;;11.00;;
64037;SDS011;54641;50.168;8.492;2023-03-01T08:48:20;19.60;;;11.90;;
64037;SDS011;54641;50.168;8.492;2023-03-01T08:50:51;19.50;;;12.50;;
64037;SDS011;54641;50.168;8.492;2023-03-01T08:53:21;21.70;;;12.50;;
64037;SDS011;54641;50.168;8.492;2023-03-01T08:55:51;20.50;;;13.40;;
64037;SDS011;54641;50.168;8.492;2023-03-01T08:58:22;17.40;;;10.60;;
64037;SDS011;54641;50.168;8.492;2023-03-01T09:00:53;20.30;;;11.90;;
64037;SDS011;54641;50.168;8.492;2023-03-01T09:03:24;22.60;;;13.80;;
64037;SDS011;54641;50.168;8.492;2023-03-01T09:05:59;20.80;;;13.00;;
64037;SDS011;54641;50.168;8.492;2023-03-01T09:08:30;22.70;;;13.20;;
64037;SDS011;54641;50.168;8.492;2023-03-01T09:11:02;20.00;;;12.80;;
64037;SDS011;54641;50.168;8.492;2023-03-01T09:13:34;19.90;;;13.40;;
64037;SDS011;54641;50.168;8.492;2023-03-01T09:16:05;18.80;;;12.70;;
64037;SDS011;54641;50.168;8.492;2023-03-01T09:18:37;20.60;;;13.80;;
64037;SDS011;54641;50.168;8.492;2023-03-01T09:21:09;19.70;;;13.10;;
64037;SDS011;54641;50.168;8.492;2023-03-01T09:23:40;20.60;;;14.00;;
64037;SDS011;54641;50.168;8.492;2023-03-01T09:26:13;21.90;;;13.80;;
64037;SDS011;54641;50.168;8.492;2023-03-01T09:28:46;20.10;;;13.70;;
64037;SDS011;54641;50.168;8.492;2023-03-01T09:31:18;20.50;;;12.40;;
64037;SDS011;54641;50.168;8.492;2023-03-01T09:33:50;18.90;;;12.40;;
64037;SDS011;54641;50.168;8.492;2023-03-01T09:36:22;23.20;;;14.90;;
64037;SDS011;54641;50.168;8.492;2023-03-01T09:38:54;19.90;;;12.60;;
64037;SDS011;54641;50.168;8.492;2023-03-01T09:41:35;19.60;;;12.50;;
64037;SDS011;54641;50.168;8.492;2023-03-01T09:44:23;17.20;;;11.30;;
64037;SDS011;54641;50.168;8.492;2023-03-01T09:47:00;18.90;;;13.20;;
64037;SDS011;54641;50.168;8.492;2023-03-01T09:49:33;18.20;;;11.70;;
64037;SDS011;54641;50.168;8.492;2023-03-01T09:52:09;18.10;;;11.70;;
64037;SDS011;54641;50.168;8.492;2023-03-01T09:54:53;19.90;;;12.50;;
64037;SDS011;54641;50.168;8.492;2023-03-01T09:57:30;19.30;;;12.90;;
64037;SDS011;54641;50.168;8.492;2023-03-01T10:00:11;20.00;;;14.60;;
64037;SDS011;54641;50.168;8.492;2023-03-01T10:02:51;21.80;;;14.40;;
64037;SDS011;54641;50.168;8.492;2023-03-01T10:08:25;20.80;;;13.70;;
64037;SDS011;54641;50.168;8.492;2023-03-01T10:11:01;23.10;;;14.20;;
64037;SDS011;54641;50.168;8.492;2023-03-01T10:13:37;21.00;;;15.40;;
64037;SDS011;54641;50.168;8.492;2023-03-01T10:16:16;24.10;;;15.10;;
64037;SDS011;54641;50.168;8.492;2023-03-01T10:18:53;22.00;;;14.50;;
64037;SDS011;54641;50.168;8.492;2023-03-01T10:21:29;19.90;;;14.20;;
64037;SDS011;54641;50.168;8.492;2023-03-01T10:24:05;19.90;;;14.00;;
64037;SDS011;54641;50.168;8.492;2023-03-01T10:26:43;19.10;;;13.00;;
64037;SDS011;54641;50.168;8.492;2023-03-01T10:29:19;18.10;;;11.50;;
64037;SDS011;54641;50.168;8.492;2023-03-01T10:31:56;20.10;;;13.20;;
64037;SDS011;54641;50.168;8.492;2023-03-01T10:34:31;21.30;;;15.70;;
64037;SDS011;54641;50.168;8.492;2023-03-01T10:37:15;21.40;;;14.00;;
64037;SDS011;54641;50.168;8.492;2023-03-01T10:46:01;20.50;;;12.70;;
64037;SDS011;54641;50.168;8.492;2023-03-01T10:48:32;19.00;;;13.80;;
64037;SDS011;54641;50.168;8.492;2023-03-01T10:51:06;19.00;;;14.00;;
64037;SDS011;54641;50.168;8.492;2023-03-01T10:53:41;18.30;;;13.40;;
64037;SDS011;54641;50.168;8.492;2023-03-01T10:56:16;17.00;;;12.40;;
64037;SDS011;54641;50.168;8.492;2023-03-01T10:58:57;20.50;;;13.80;;
64037;SDS011;54641;50.168;8.492;2023-03-01T11:04:09;19.50;;;13.10;;
64037;SDS011;54641;50.168;8.492;2023-03-01T11:06:41;16.80;;;12.30;;
64037;SDS011;54641;50.168;8.492;2023-03-01T11:09:15;19.10;;;13.40;;
64037;SDS011;54641;50.168;8.492;2023-03-01T11:11:47;19.10;;;13.30;;
64037;SDS011;54641;50.168;8.492;2023-03-01T11:14:22;17.00;;;12.30;;
64037;SDS011;54641;50.168;8.492;2023-03-01T11:19:33;15.90;;;10.60;;
64037;SDS011;54641;50.168;8.492;2023-03-01T11:22:04;16.00;;;11.90;;
64037;SDS011;54641;50.168;8.492;2023-03-01T11:27:14;20.50;;;12.10;;
64037;SDS011;54641;50.168;8.492;2023-03-01T11:29:48;17.20;;;12.50;;
64037;SDS011;54641;50.168;8.492;2023-03-01T11:32:22;18.80;;;13.60;;
64037;SDS011;54641;50.168;8.492;2023-03-01T11:34:55;18.10;;;13.10;;
64037;SDS011;54641;50.168;8.492;2023-03-01T11:37:32;16.80;;;13.00;;
64037;SDS011;54641;50.168;8.492;2023-03-01T11:40:10;18.10;;;12.80;;
64037;SDS011;54641;50.168;8.492;2023-03-01T11:42:46;18.60;;;13.70;;
64037;SDS011;54641;50.168;8.492;2023-03-01T11:45:21;17.10;;;13.50;;
64037;SDS011;54641;50.168;8.492;2023-03-01T11:48:02;15.30;;;11.70;;
64037;SDS011;54641;50.168;8.492;2023-03-01T11:50:41;16.70;;;12.50;;
64037;SDS011;54641;50.168;8.492;2023-03-01T11:53:18;17.10;;;12.30;;
64037;SDS011;54641;50.168;8.492;2023-03-01T11:56:01;16.20;;;12.00;;
64037;SDS011;54641;50.168;8.492;2023-03-01T11:58:41;18.60;;;13.40;;
64037;SDS011;54641;50.168;8.492;2023-03-01T12:01:23;17.40;;;12.60;;
64037;SDS011;54641;50.168;8.492;2023-03-01T12:07:07;14.70;;;11.20;;
64037;SDS011;54641;50.168;8.492;2023-03-01T12:09:52;16.10;;;11.80;;
64037;SDS011;54641;50.168;8.492;2023-03-01T12:12:29;16.20;;;11.80;;
64037;SDS011;54641;50.168;8.492;2023-03-01T12:18:16;15.60;;;12.40;;
64037;SDS011;54641;50.168;8.492;2023-03-01T12:20:56;16.20;;;12.60;;
64037;SDS011;54641;50.168;8.492;2023-03-01T12:26:23;15.00;;;12.20;;
64037;SDS011;54641;50.168;8.492;2023-03-01T12:29:09;15.50;;;11.50;;
64037;SDS011;54641;50.168;8.492;2023-03-01T12:31:54;17.50;;;12.60;;
64037;SDS011;54641;50.168;8.492;2023-03-01T12:34:38;16.70;;;12.40;;
64037;SDS011;54641;50.168;8.492;2023-03-01T12:37:31;16.00;;;11.80;;
64037;SDS011;54641;50.168;8.492;2023-03-01T12:40:31;14.80;;;12.10;;
64037;SDS011;54641;50.168;8.492;2023-03-01T12:43:10;15.40;;;11.00;;
64037;SDS011;54641;50.168;8.492;2023-03-01T12:45:51;15.20;;;11.60;;
64037;SDS011;54641;50.168;8.492;2023-03-01T12:48:34;16.10;;;12.70;;
64037;SDS011;54641;50.168;8.492;2023-03-01T12:51:13;15.30;;;12.50;;
64037;SDS011;54641;50.168;8.492;2023-03-01T12:53:46;18.10;;;13.00;;
64037;SDS011;54641;50.168;8.492;2023-03-01T12:56:19;15.50;;;11.70;;
64037;SDS011;54641;50.168;8.492;2023-03-01T12:58:54;17.30;;;12.20;;
64037;SDS011;54641;50.168;8.492;2023-03-01T13:01:36;14.80;;;11.90;;
64037;SDS011;54641;50.168;8.492;2023-03-01T13:04:14;16.00;;;13.00;;
64037;SDS011;54641;50.168;8.492;2023-03-01T13:06:53;13.30;;;10.60;;
64037;SDS011;54641;50.168;8.492;2023-03-01T13:09:31;15.30;;;12.20;;
64037;SDS011;54641;50.168;8.492;2023-03-01T13:15:17;16.30;;;12.20;;
64037;SDS011;54641;50.168;8.492;2023-03-01T13:17:55;18.00;;;13.30;;
64037;SDS011;54641;50.168;8.492;2023-03-01T13:20:29;16.70;;;11.10;;
64037;SDS011;54641;50.168;8.492;2023-03-01T13:23:07;14.70;;;11.30;;
64037;SDS011;54641;50.168;8.492;2023-03-01T13:28:48;13.80;;;11.20;;
64037;SDS011;54641;50.168;8.492;2023-03-01T13:34:42;16.80;;;13.10;;
64037;SDS011;54641;50.168;8.492;2023-03-01T13:37:30;15.00;;;11.60;;
64037;SDS011;54641;50.168;8.492;2023-03-01T13:43:29;13.20;;;10.20;;
64037;SDS011;54641;50.168;8.492;2023-03-01T13:46:01;15.30;;;12.20;;
64037;SDS011;54641;50.168;8.492;2023-03-01T13:48:36;13.40;;;9.50;;
64037;SDS011;54641;50.168;8.492;2023-03-01T13:51:09;14.00;;;11.50;;
64037;SDS011;54641;50.168;8.492;2023-03-01T13:53:41;15.20;;;10.60;;
64037;SDS011;54641;50.168;8.492;2023-03-01T13:56:15;15.40;;;11.20;;
64037;SDS011;54641;50.168;8.492;2023-03-01T13:58:53;14.30;;;11.40;;
64037;SDS011;54641;50.168;8.492;2023-03-01T14:01:28;14.80;;;11.70;;
64037;SDS011;54641;50.168;8.492;2023-03-01T14:04:01;14.80;;;10.80;;
64037;SDS011;54641;50.168;8.492;2023-03-01T14:06:33;15.40;;;11.20;;
64037;SDS011;54641;50.168;8.492;2023-03-01T14:09:05;16.70;;;11.90;;
64037;SDS011;54641;50.168;8.492;2023-03-01T14:12:02;16.40;;;10.70;;
64037;SDS011;54641;50.168;8.492;2023-03-01T14:14:50;14.30;;;9.30;;
64037;SDS011;54641;50.168;8.492;2023-03-01T14:17:32;15.00;;;9.40;;
64037;SDS011;54641;50.168;8.492;2023-03-01T14:20:13;15.10;;;9.10;;
64037;SDS011;54641;50.168;8.492;2023-03-01T14:22:48;16.90;;;9.80;;
64037;SDS011;54641;50.168;8.492;2023-03-01T14:25:26;15.20;;;8.80;;
64037;SDS011;54641;50.168;8.492;2023-03-01T14:28:00;17.20;;;10.00;;
64037;SDS011;54641;50.168;8.492;2023-03-01T14:30:34;13.80;;;9.20;;
64037;SDS011;54641;50.168;8.492;2023-03-01T14:33:18;13.80;;;8.10;;
64037;SDS011;54641;50.168;8.492;2023-03-01T14:35:55;16.70;;;9.80;;
64037;SDS011;54641;50.168;8.492;2023-03-01T14:38:31;15.60;;;9.10;;
64037;SDS011;54641;50.168;8.492;2023-03-01T14:41:05;14.20;;;8.30;;
64037;SDS011;54641;50.168;8.492;2023-03-01T14:43:37;15.60;;;8.80;;
64037;SDS011;54641;50.168;8.492;2023-03-01T14:46:17;13.40;;;8.30;;
64037;SDS011;54641;50.168;8.492;2023-03-01T14:48:51;17.00;;;9.90;;
64037;SDS011;54641;50.168;8.492;2023-03-01T14:51:22;13.90;;;8.40;;
64037;SDS011;54641;50.168;8.492;2023-03-01T14:53:52;14.90;;;9.50;;
64037;SDS011;54641;50.168;8.492;2023-03-01T14:56:24;19.70;;;9.20;;
64037;SDS011;54641;50.168;8.492;2023-03-01T14:58:54;14.00;;;8.50;;
64037;SDS011;54641;50.168;8.492;2023-03-01T15:01:28;16.90;;;9.30;;
64037;SDS011;54641;50.168;8.492;2023-03-01T15:03:59;15.20;;;8.50;;
64037;SDS011;54641;50.168;8.492;2023-03-01T15:06:30;13.60;;;8.30;;
64037;SDS011;54641;50.168;8.492;2023-03-01T15:09:01;11.60;;;5.80;;
64037;SDS011;54641;50.168;8.492;2023-03-01T15:11:32;12.30;;;8.00;;
64037;SDS011;54641;50.168;8.492;2023-03-01T15:14:05;14.60;;;9.50;;
64037;SDS011;54641;50.168;8.492;2023-03-01T15:16:55;14.40;;;7.80;;
64037;SDS011;54641;50.168;8.492;2023-03-01T15:19:26;16.40;;;8.10;;
64037;SDS011;54641;50.168;8.492;2023-03-01T15:21:58;13.10;;;7.20;;
64037;SDS011;54641;50.168;8.492;2023-03-01T15:24:39;13.90;;;8.60;;
64037;SDS011;54641;50.168;8.492;2023-03-01T15:27:14;14.30;;;8.70;;
64037;SDS011;54641;50.168;8.492;2023-03-01T15:29:50;15.30;;;8.40;;
64037;SDS011;54641;50.168;8.492;2023-03-01T15:32:26;13.00;;;7.90;;
64037;SDS011;54641;50.168;8.492;2023-03-01T15:34:58;15.50;;;8.10;;
64037;SDS011;54641;50.168;8.492;2023-03-01T15:37:39;13.20;;;7.30;;
64037;SDS011;54641;50.168;8.492;2023-03-01T15:40:19;16.00;;;9.50;;
64037;SDS011;54641;50.168;8.492;2023-03-01T15:42:59;14.50;;;8.20;;
64037;SDS011;54641;50.168;8.492;2023-03-01T15:45:30;16.30;;;8.90;;
64037;SDS011;54641;50.168;8.492;2023-03-01T15:48:05;15.60;;;8.00;;
64037;SDS011;54641;50.168;8.492;2023-03-01T15:50:44;15.30;;;9.00;;
64037;SDS011;54641;50.168;8.492;2023-03-01T15:53:22;14.30;;;7.90;;